NCAR-RAP Real-Time Weather Data

Output produced by METARs form (23 January 2018  15:51 UTC)
found at http://weather.rap.ucar.edu/surface/
 
RJCK 231100Z 33003KT 2400 -SHSN FEW005 SCT009 BKN015 M03/M03 Q0997
RJCK 231000Z 34003KT 2000 -SHSN FEW005 SCT009 BKN015 M03/M03 Q0997
RJCK 230946Z 02004KT 2300 -SHSN FEW005 SCT009 BKN015 M02/M04 Q0997 RMK 1ST005 4ST009 7ST015 A2946
RJCK 230941Z 02004KT 3100 -SHSN FEW005 SCT009 BKN015 M02/M04 Q0997 RMK 1ST005 3ST009 7ST015 A2946
RJCK 230932Z 03005KT 4900 -SHSN FEW005 SCT010 BKN015 M02/M04 Q0997 RMK 1ST005 3ST010 7ST015 A2946
RJCK 230900Z 05008KT 6000 -SHSN FEW005 BKN015 BKN020 M02/M04 Q0997
RJCK 230800Z 05006KT 010V080 9999 -SHSN FEW010 SCT015 BKN020 M02/M04 Q0999
RJCK 230732Z 05008KT 020V090 5000 -SHSN FEW005 SCT010 BKN018 M02/M04 Q0998 RMK 1ST005 3ST010 7ST018 A2948
RJCK 230712Z 04006KT 4900 -SHSN FEW005 SCT010 BKN018 M02/M04 Q0998 RMK 1ST005 3ST010 7ST018 A2949
RJCK 230700Z 04008KT 5000 -SHSN FEW005 SCT012 BKN018 M02/M04 Q0998
RJCK 230600Z 06009KT 9999 -SHSN FEW010 SCT012 BKN018 M02/M04 Q0999
RJCK 230500Z 04013KT 8000 -SHSN FEW008 SCT012 BKN020 M01/M04 Q0999
RJCK 230400Z 06011KT 030V090 5000 -SHSN FEW006 SCT009 BKN015 M01/M04 Q1000
RJCK 230337Z 04008KT 3200 -SHSN FEW004 SCT009 BKN012 M02/M03 Q1001 RMK 1ST004 4ST009 6ST012 A2956
RJCK 230317Z 04009KT 3100 R35/2000D -SHSN FEW004 BKN009 M02/M04 Q1002 RMK 1ST004 7ST009 A2959
RJCK 230310Z 03008KT 4900 -SHSN FEW005 BKN015 M02/M04 Q1002 RMK 1ST005 7ST015 A2959
RJCK 230300Z 03008KT 6000 -SHSN FEW005 BKN015 M02/M04 Q1002
RJCK 230200Z 02009KT 9999 -SHSN FEW010 BKN020 M03/M06 Q1004
RJCK 230100Z 03009KT 9999 FEW015 SCT020 BKN050 M03/M07 Q1006
RJCK 230000Z 03009KT 9999 FEW015 SCT020 BKN060 M04/M09 Q1007
RJCK 222300Z 02009KT 9999 FEW018 BKN050 M05/M11 Q1009
RJCK 222200Z 01009KT 9999 FEW018 BKN060 M06/M13 Q1010
RJCK 222145Z 02008KT 9999 FEW018 BKN050 M06/M13 Q1010 RMK 1ST018 7CU050 A2984
RJCK 221100Z 32004KT 9999 FEW030 BKN160 M08/M15 Q1018
RJCK 221000Z 28004KT 9999 FEW030 BKN160 M07/M17 Q1018
RJCK 220900Z 26004KT 220V290 9999 FEW030 SCT/// M06/M17 Q1018
RJCK 220800Z 22005KT 9999 FEW030 M06/M17 Q1018
RJCK 220700Z 24008KT 200V260 9999 FEW030 SCT/// M05/M17 Q1017
RJCK 220600Z 25010KT 210V290 9999 FEW030 SCT/// M04/M18 Q1017
RJCK 220500Z 23011KT 9999 FEW040 M04/M19 Q1017
RJCK 220400Z 22011KT 190V260 9999 FEW040 M04/M17 Q1017
RJCK 220300Z 22012KT 9999 FEW030 M05/M17 Q1018
RJCK 220200Z 22012KT 180V260 9999 FEW030 SCT050 M05/M17 Q1018
RJCK 220100Z 22012KT 9999 FEW020 SCT040 M06/M17 Q1018
RJCK 220000Z 18007KT 9999 FEW040 M07/M18 Q1019
RJCK 212300Z 22005KT 9999 FEW030 M09/M19 Q1018
RJCK 212200Z 20004KT 9999 FEW030 M11/M19 Q1018
RJCK 212145Z 21005KT 9999 FEW030 M10/M19 Q1018 RMK 1CU030 A3006
RJCK 211100Z 29011KT 9999 FEW030 M08/M18 Q1011
RJCK 211000Z 28013KT 9999 FEW030 M07/M20 Q1010
RJCK 210900Z 29010KT 9999 FEW030 M06/M17 Q1009
RJCK 210800Z 28011KT 240V320 9999 FEW030 M05/M16 Q1009
RJCK 210700Z 26010KT 9999 FEW030 M04/M16 Q1008
RJCK 210600Z 26011KT 9999 FEW030 M03/M16 Q1008
RJCK 210500Z 27015KT 230V310 9999 FEW030 M03/M17 Q1008
RJCK 210400Z 27014G24KT 240V310 9999 FEW030 M03/M18 Q1008